KDLH/DLH METAR and TAF weather

Enter ICAO airport designator
Station Type Date Time Source
KDLH METAR 2022/01/26 19:02 UTC NOAA

KDLH 261902Z 22020G35KT 5SM -SN SCT014 BKN120 M14/M18 A2975 RMK AO2 PK WND 21032/1859 P0000 T11441183


Station Type Date Time Source
KDLH Decoded METAR 2022/01/26 19:02 UTC NOAA

Duluth, Duluth International Airport, MN, United States (KDLH) 46-50-34N 092-13-34W 435M
Jan 26, 2022 - 02:02 PM EST / 2022.01.26 1902 UTC
Wind: from the SW (220 degrees) at 23 MPH (20 KT) gusting to 40 MPH (35 KT):0
Visibility: 5 mile(s):0
Sky conditions: mostly cloudy
Weather: light snow
Precipitation last hour: A trace
Temperature: 6.1 F (-14.4 C)
Windchill: -14 F (-26 C):2
Dew Point: -0.9 F (-18.3 C)
Relative Humidity: 72%
Pressure (altimeter): 29.75 in. Hg (1007 hPa)
ob: KDLH 261902Z 22020G35KT 5SM -SN SCT014 BKN120 M14/M18 A2975 RMK AO2 PK WND 21032/1859 P0000 T11441183
cycle: 19

Station Type Date Time Source
KDLH TAF 2022/01/26 18:36 UTC NOAA

TAF KDLH 261735Z 2618/2718 21013G27KT P6SM BKN100 WS020/22050KT
FM262100 22020G33KT P6SM BKN017
FM270300 23013G21KT 5SM -SN BR BKN015
FM270700 26013KT P6SM BKN025
FM271400 31014G25KT P6SM BKN030

Example: see airport list